Time;durP1;ratioP1;P1;durP2;ratioP2;P2;SDS_P1;SDS_P2;PMS_P1;PMS_P2;Temp;Humidity;BMP_temperature;BMP_pressure;BME280_temperature;BME280_humidity;BME280_pressure;Samples;Min_cycle;Max_cycle;Signal;HPM_P1;HPM_P2
2022/04/20 00:01:25;;;;;;;20.98;13.15;;;9.50;99.90;;;;;;5074391;28;20053;-71
2022/04/20 00:03:52;;;;;;;15.43;12.88;;;9.50;99.90;;;;;;5072182;28;20045;-71
2022/04/20 00:06:19;;;;;;;20.40;15.00;;;9.40;99.90;;;;;;5072538;28;20097;-72
2022/04/20 00:08:46;;;;;;;18.27;13.55;;;9.40;99.90;;;;;;5074598;28;20796;-72
2022/04/20 00:11:13;;;;;;;21.40;14.00;;;9.40;99.90;;;;;;5055931;28;20057;-73
2022/04/20 00:13:40;;;;;;;19.10;13.35;;;9.40;99.90;;;;;;5073717;28;20055;-71
2022/04/20 00:16:07;;;;;;;17.10;13.20;;;9.30;99.90;;;;;;5072655;28;20085;-71
2022/04/20 00:18:34;;;;;;;18.63;12.20;;;9.30;99.90;;;;;;5072896;28;20106;-72
2022/04/20 00:21:01;;;;;;;17.02;13.63;;;9.30;99.90;;;;;;5071873;28;20050;-72
2022/04/20 00:23:28;;;;;;;22.38;13.93;;;9.30;99.90;;;;;;5072578;28;20040;-72
2022/04/20 00:25:55;;;;;;;19.50;13.20;;;9.30;99.90;;;;;;5072155;28;20059;-73
2022/04/20 00:28:22;;;;;;;21.70;12.52;;;9.30;99.90;;;;;;5074149;28;20041;-73
2022/04/20 00:30:48;;;;;;;18.38;12.82;;;9.30;99.90;;;;;;5072312;28;20052;-73
2022/04/20 00:33:15;;;;;;;16.50;13.90;;;9.20;99.90;;;;;;5074008;28;20052;-73
2022/04/20 00:35:43;;;;;;;17.92;12.43;;;9.10;99.90;;;;;;5073047;28;20044;-73
2022/04/20 00:38:09;;;;;;;18.98;13.95;;;9.00;99.90;;;;;;5071944;28;20044;-72
2022/04/20 00:40:36;;;;;;;19.10;14.15;;;9.00;99.90;;;;;;5072046;28;20102;-71
2022/04/20 00:43:03;;;;;;;19.23;12.57;;;8.90;99.90;;;;;;5072295;28;20055;-72
2022/04/20 00:45:31;;;;;;;16.65;12.90;;;8.90;99.90;;;;;;5072376;28;20100;-72
2022/04/20 00:47:58;;;;;;;18.33;13.55;;;8.90;99.90;;;;;;5072586;28;20051;-71
2022/04/20 00:50:25;;;;;;;17.85;12.88;;;8.80;99.90;;;;;;5071739;28;20154;-71
2022/04/20 00:52:51;;;;;;;17.27;12.45;;;8.80;99.90;;;;;;5071651;28;20044;-72
2022/04/20 00:55:27;;;;;;;18.17;12.63;;;8.70;99.90;;;;;;5065191;28;20066;-71
2022/04/20 00:57:54;;;;;;;18.55;12.93;;;8.70;99.90;;;;;;5072485;28;20452;-72
2022/04/20 01:00:21;;;;;;;18.23;12.98;;;8.70;99.90;;;;;;5072217;28;20060;-73
2022/04/20 01:02:48;;;;;;;20.20;14.48;;;8.70;99.90;;;;;;5075424;28;20399;-72
2022/04/20 01:05:15;;;;;;;21.95;14.70;;;8.60;99.90;;;;;;5071432;28;20120;-71
2022/04/20 01:07:42;;;;;;;18.35;12.55;;;8.60;99.90;;;;;;5072858;28;20049;-71
2022/04/20 01:10:09;;;;;;;19.20;12.88;;;8.60;99.90;;;;;;5071422;28;20044;-72
2022/04/20 01:12:36;;;;;;;20.95;13.02;;;8.60;99.90;;;;;;5054417;28;20059;-71
2022/04/20 01:15:03;;;;;;;17.05;12.52;;;8.50;99.90;;;;;;5071708;28;20047;-71
2022/04/20 01:17:30;;;;;;;19.92;13.07;;;8.50;99.90;;;;;;5070816;28;20049;-71
2022/04/20 01:19:57;;;;;;;22.95;13.40;;;8.50;99.90;;;;;;5072870;28;20313;-70
2022/04/20 01:22:24;;;;;;;22.38;14.00;;;8.50;99.90;;;;;;5054253;28;20052;-71
2022/04/20 01:24:51;;;;;;;24.80;14.20;;;8.50;99.90;;;;;;5071121;28;20138;-71
2022/04/20 01:27:18;;;;;;;19.77;14.05;;;8.40;99.90;;;;;;5072340;28;20052;-71
2022/04/20 01:29:45;;;;;;;21.00;14.65;;;8.40;99.90;;;;;;5073284;28;20048;-72
2022/04/20 01:32:12;;;;;;;20.48;13.65;;;8.40;99.90;;;;;;5050986;28;20047;-71
2022/04/20 01:34:39;;;;;;;19.13;13.27;;;8.40;99.90;;;;;;5070241;28;20053;-71
2022/04/20 01:37:06;;;;;;;24.25;15.75;;;8.40;99.90;;;;;;5054327;28;20056;-71
2022/04/20 01:39:33;;;;;;;19.38;13.77;;;8.40;99.90;;;;;;5070516;28;20041;-72
2022/04/20 01:42:00;;;;;;;20.50;14.68;;;8.40;99.90;;;;;;5070410;28;20060;-72
2022/04/20 01:44:27;;;;;;;21.77;14.73;;;8.40;99.90;;;;;;5072360;28;20051;-72
2022/04/20 01:46:53;;;;;;;27.80;16.80;;;8.40;99.90;;;;;;5071518;28;20056;-71
2022/04/20 01:49:20;;;;;;;24.42;16.70;;;8.40;99.90;;;;;;5070907;28;20051;-71
2022/04/20 01:51:47;;;;;;;20.20;15.27;;;8.30;99.90;;;;;;5070928;28;20052;-72
2022/04/20 01:54:14;;;;;;;24.08;15.90;;;8.30;99.90;;;;;;5071406;28;20051;-72
2022/04/20 01:56:41;;;;;;;23.20;15.57;;;8.30;99.90;;;;;;5054563;28;20075;-72
2022/04/20 01:59:09;;;;;;;23.77;16.58;;;8.30;99.90;;;;;;5070859;28;20518;-71
2022/04/20 02:04:22;;;;;;;21.80;15.32;;;8.30;99.90;;;;;;5066396;28;21834;-72
2022/04/20 02:06:49;;;;;;;24.08;16.17;;;8.30;99.90;;;;;;5063267;28;20049;-72
2022/04/20 02:09:15;;;;;;;22.52;16.65;;;8.20;99.90;;;;;;5059351;28;20115;-71
2022/04/20 02:11:42;;;;;;;21.17;15.93;;;8.20;99.90;;;;;;5070965;28;20049;-72
2022/04/20 02:14:09;;;;;;;27.30;16.92;;;8.20;99.90;;;;;;5066358;28;20049;-71
2022/04/20 02:16:37;;;;;;;24.33;17.25;;;8.20;99.90;;;;;;5070847;28;20048;-72
2022/04/20 02:19:04;;;;;;;27.30;16.52;;;8.30;99.90;;;;;;5071446;28;20067;-73
2022/04/20 02:21:31;;;;;;;22.77;16.13;;;8.30;99.90;;;;;;5069896;28;20045;-72
2022/04/20 02:23:58;;;;;;;26.63;18.30;;;8.30;99.90;;;;;;5070378;28;20044;-72
2022/04/20 02:26:25;;;;;;;23.65;16.95;;;8.30;99.90;;;;;;5070853;28;20056;-72
2022/04/20 02:28:51;;;;;;;23.98;16.83;;;8.30;99.90;;;;;;5069384;28;20048;-72
2022/04/20 02:31:18;;;;;;;27.00;16.83;;;8.20;99.90;;;;;;5072096;28;20495;-71
2022/04/20 02:33:45;;;;;;;27.70;18.08;;;8.20;99.90;;;;;;5070259;28;20084;-71
2022/04/20 02:36:12;;;;;;;24.02;16.17;;;8.20;99.90;;;;;;5068863;28;20064;-71
2022/04/20 02:38:39;;;;;;;26.65;18.02;;;8.20;99.90;;;;;;5059328;28;20048;-70
2022/04/20 02:41:06;;;;;;;24.25;17.90;;;8.20;99.90;;;;;;5057132;28;20448;-71
2022/04/20 02:43:33;;;;;;;25.35;17.48;;;8.20;99.90;;;;;;5071756;28;20044;-71
2022/04/20 02:46:00;;;;;;;22.13;16.58;;;8.20;99.90;;;;;;5069502;28;20040;-72
2022/04/20 02:48:27;;;;;;;23.73;17.23;;;8.10;99.90;;;;;;5069870;28;20124;-70
2022/04/20 02:50:54;;;;;;;32.42;17.55;;;8.20;99.90;;;;;;5069660;28;20052;-72
2022/04/20 02:53:21;;;;;;;22.35;16.85;;;8.20;99.90;;;;;;5070218;28;20166;-72
2022/04/20 02:55:47;;;;;;;27.92;18.70;;;8.20;99.90;;;;;;5070778;28;20395;-72
2022/04/20 02:58:14;;;;;;;25.00;17.40;;;8.10;99.90;;;;;;5070795;28;20048;-72
2022/04/20 03:00:43;;;;;;;25.92;18.10;;;8.10;99.90;;;;;;5074119;28;20049;-73
2022/04/20 03:03:15;;;;;;;23.73;17.40;;;8.10;99.90;;;;;;5073280;28;20056;-74
2022/04/20 03:05:48;;;;;;;26.20;18.08;;;8.10;99.90;;;;;;5075346;28;20084;-70
2022/04/20 03:08:15;;;;;;;29.65;17.50;;;8.10;99.90;;;;;;5071568;28;20049;-72
2022/04/20 04:29:28;;;;;;;32.10;22.17;;;7.80;99.90;;;;;;5050803;28;20083;-71
2022/04/20 04:31:55;;;;;;;33.75;22.70;;;7.70;99.90;;;;;;5067415;28;20059;-71
2022/04/20 04:34:22;;;;;;;35.47;22.25;;;7.70;99.90;;;;;;5059603;28;20124;-71
2022/04/20 04:36:56;;;;;;;35.83;22.33;;;7.70;99.90;;;;;;5072945;28;20048;-71
2022/04/20 04:39:23;;;;;;;36.45;23.85;;;7.70;99.90;;;;;;5073028;28;20055;-71
2022/04/20 04:41:50;;;;;;;41.35;23.55;;;7.70;99.90;;;;;;5056371;28;20064;-71
2022/04/20 04:44:20;;;;;;;34.38;23.08;;;7.70;99.90;;;;;;5089635;28;20059;-71
2022/04/20 04:49:32;;;;;;;36.05;23.42;;;7.70;99.90;;;;;;5073749;28;20053;-71
2022/04/20 04:52:00;;;;;;;32.67;23.67;;;7.70;99.90;;;;;;5072323;28;20440;-72
2022/04/20 04:54:27;;;;;;;34.95;24.65;;;7.70;99.90;;;;;;5066385;28;20056;-71
2022/04/20 04:56:54;;;;;;;33.70;22.30;;;7.70;99.90;;;;;;5072514;28;20044;-71
2022/04/20 04:59:21;;;;;;;34.88;25.00;;;7.70;99.90;;;;;;5072165;28;20040;-72
2022/04/20 05:01:48;;;;;;;35.75;24.65;;;7.70;99.90;;;;;;5068887;28;20094;-72
2022/04/20 05:04:15;;;;;;;41.45;24.17;;;7.70;99.90;;;;;;5077871;28;20123;-71
2022/04/20 05:06:43;;;;;;;32.50;22.92;;;7.80;99.90;;;;;;5067234;28;20045;-72
2022/04/20 05:09:10;;;;;;;38.25;26.05;;;7.80;99.90;;;;;;5070904;28;20064;-71
2022/04/20 05:11:37;;;;;;;40.58;26.67;;;7.80;99.90;;;;;;5082005;28;20044;-71
2022/04/20 05:14:04;;;;;;;37.30;24.48;;;7.80;99.90;;;;;;5071209;28;20098;-72
2022/04/20 05:16:31;;;;;;;39.97;25.20;;;7.80;99.90;;;;;;5071997;28;20049;-72
2022/04/20 05:18:58;;;;;;;35.50;23.92;;;7.80;99.90;;;;;;5081007;28;20048;-72
2022/04/20 05:21:25;;;;;;;36.20;24.20;;;7.80;99.90;;;;;;5071440;28;20040;-71
2022/04/20 05:23:54;;;;;;;38.42;24.42;;;7.80;99.90;;;;;;5067556;28;20040;-71
2022/04/20 05:26:21;;;;;;;45.72;26.67;;;7.80;99.90;;;;;;5070839;28;20054;-72
2022/04/20 05:28:48;;;;;;;39.22;24.02;;;7.90;99.90;;;;;;5070572;28;20060;-71
2022/04/20 05:31:15;;;;;;;35.83;24.40;;;7.90;99.90;;;;;;5071534;28;20460;-71
2022/04/20 05:33:42;;;;;;;33.65;24.20;;;7.90;99.90;;;;;;5071338;28;20076;-72
2022/04/20 05:36:09;;;;;;;38.70;23.50;;;7.90;99.90;;;;;;5071323;28;20143;-72
2022/04/20 05:41:54;;;;;;;36.67;25.15;;;8.00;99.90;;;;;;5070811;28;20408;-72
2022/04/20 05:44:13;;;;;;;35.63;24.17;;;8.10;99.90;;;;;;5071027;28;20040;-73
2022/04/20 05:46:41;;;;;;;40.17;25.08;;;8.30;99.90;;;;;;5059253;28;20059;-71
2022/04/20 05:49:08;;;;;;;39.38;26.38;;;8.30;99.90;;;;;;5066434;28;20040;-73
2022/04/20 05:51:35;;;;;;;79.15;52.50;;;8.50;99.90;;;;;;5071355;28;20067;-73
2022/04/20 05:54:03;;;;;;;42.05;31.08;;;8.60;99.90;;;;;;5071536;28;20048;-73
2022/04/20 05:56:29;;;;;;;33.25;23.30;;;8.70;99.90;;;;;;5070752;28;20079;-70
2022/04/20 05:58:57;;;;;;;34.20;23.20;;;8.80;99.90;;;;;;5071440;28;20056;-74
2022/04/20 06:01:26;;;;;;;34.95;23.95;;;8.90;99.90;;;;;;5070996;28;20052;-75
2022/04/20 06:03:53;;;;;;;39.65;25.05;;;9.10;99.90;;;;;;5072125;28;20087;-74
2022/04/20 06:06:20;;;;;;;93.18;67.18;;;9.10;99.90;;;;;;5068896;28;20264;-77
2022/04/20 06:08:47;;;;;;;38.03;27.23;;;9.30;99.90;;;;;;5068790;28;20131;-70
2022/04/20 06:11:14;;;;;;;38.67;25.33;;;9.40;99.90;;;;;;5058988;28;20044;-70
2022/04/20 06:13:41;;;;;;;32.30;23.13;;;9.50;99.90;;;;;;5059537;28;20500;-70
2022/04/20 06:16:08;;;;;;;37.63;23.15;;;9.60;99.90;;;;;;5051206;28;20059;-71
2022/04/20 06:18:35;;;;;;;36.28;24.38;;;9.60;99.90;;;;;;5051213;28;20432;-71
2022/04/20 06:21:02;;;;;;;35.22;22.88;;;9.60;99.90;;;;;;5067166;28;20045;-70
2022/04/20 06:23:29;;;;;;;34.33;22.67;;;9.70;99.90;;;;;;5071780;28;20411;-71
2022/04/20 06:25:56;;;;;;;30.17;20.92;;;9.60;99.90;;;;;;5070502;28;20360;-70
2022/04/20 06:28:25;;;;;;;30.88;22.27;;;9.60;99.90;;;;;;5070455;28;20056;-72
2022/04/20 06:30:52;;;;;;;34.10;22.20;;;9.60;99.90;;;;;;5069585;28;20049;-70
2022/04/20 06:33:21;;;;;;;32.65;22.15;;;9.60;99.90;;;;;;5070241;28;20060;-70
2022/04/20 06:35:48;;;;;;;29.58;21.77;;;9.60;99.90;;;;;;5070519;28;20071;-78
2022/04/20 06:38:16;;;;;;;33.97;21.42;;;9.70;99.90;;;;;;5068411;28;20056;-74
2022/04/20 06:40:43;;;;;;;27.63;20.58;;;9.70;99.90;;;;;;5071008;28;20602;-70
2022/04/20 06:43:10;;;;;;;30.92;20.25;;;9.80;99.90;;;;;;5071884;28;20255;-69
2022/04/20 06:45:37;;;;;;;25.23;17.17;;;9.90;99.90;;;;;;5070805;28;20049;-69
2022/04/20 06:48:05;;;;;;;28.02;18.73;;;9.90;99.90;;;;;;5070887;28;20049;-70
2022/04/20 06:50:32;;;;;;;33.15;19.13;;;10.00;99.90;;;;;;5069876;28;20044;-70
2022/04/20 06:58:31;;;;;;;46.30;39.60;;;10.30;99.90;;;;;;5067713;28;20044;-68
2022/04/20 06:58:44;;;;;;;28.83;19.40;;;10.30;99.90;;;;;;5058736;28;20067;-67
2022/04/20 07:01:14;;;;;;;28.08;18.90;;;10.30;99.90;;;;;;5077813;28;20098;-77
2022/04/20 07:03:42;;;;;;;27.35;16.55;;;10.30;99.90;;;;;;5069242;28;20052;-70
2022/04/20 07:06:09;;;;;;;26.55;17.90;;;10.20;99.90;;;;;;5069723;28;20052;-71
2022/04/20 07:08:37;;;;;;;26.45;16.88;;;10.20;99.90;;;;;;5065533;28;20491;-73
2022/04/20 07:11:04;;;;;;;53.85;40.92;;;10.40;99.90;;;;;;5053362;28;20048;-72
2022/04/20 07:13:31;;;;;;;78.68;66.10;;;10.40;99.90;;;;;;5070076;28;20451;-70
2022/04/20 07:15:58;;;;;;;28.55;18.52;;;10.40;99.90;;;;;;5069942;28;20434;-70
2022/04/20 07:18:25;;;;;;;23.13;16.35;;;10.50;99.90;;;;;;5070342;28;20053;-71
2022/04/20 07:20:52;;;;;;;27.95;16.33;;;10.40;99.90;;;;;;5074976;28;20051;-71
2022/04/20 07:23:19;;;;;;;29.83;17.27;;;10.40;99.90;;;;;;5078490;28;20048;-69
2022/04/20 07:25:46;;;;;;;25.27;15.43;;;10.40;99.90;;;;;;5069792;28;20522;-70
2022/04/20 07:28:17;;;;;;;23.30;16.42;;;10.40;99.90;;;;;;5070702;28;20048;-74
2022/04/20 07:30:44;;;;;;;25.85;17.13;;;10.40;99.90;;;;;;5068424;28;20514;-70
2022/04/20 07:33:15;;;;;;;22.50;15.52;;;10.40;99.90;;;;;;5070260;28;20052;-71
2022/04/20 07:35:45;;;;;;;23.25;14.60;;;10.30;99.90;;;;;;5070607;28;20048;-72
2022/04/20 07:38:12;;;;;;;28.92;16.80;;;10.20;99.90;;;;;;5069303;28;20048;-71
2022/04/20 07:40:39;;;;;;;24.80;16.85;;;10.30;99.90;;;;;;5053659;28;20052;-71
2022/04/20 07:43:06;;;;;;;25.80;17.00;;;10.30;99.90;;;;;;5070407;28;20048;-72
2022/04/20 07:45:34;;;;;;;22.85;16.30;;;10.30;99.90;;;;;;5070823;28;20062;-71
2022/04/20 07:48:01;;;;;;;26.45;15.02;;;10.40;99.90;;;;;;5075171;28;20067;-72
2022/04/20 07:50:28;;;;;;;25.55;16.15;;;10.50;99.90;;;;;;5073770;28;20127;-72
2022/04/20 07:52:58;;;;;;;25.52;15.48;;;10.60;99.90;;;;;;5057005;28;20056;-72
2022/04/20 07:55:30;;;;;;;25.63;15.77;;;10.70;99.90;;;;;;5072946;28;20492;-71
2022/04/20 07:57:58;;;;;;;21.63;14.82;;;10.90;99.90;;;;;;5074177;28;20048;-71
2022/04/20 08:00:25;;;;;;;114.80;83.93;;;11.00;99.90;;;;;;5073742;28;20067;-70
2022/04/20 08:03:19;;;;;;;109.97;74.05;;;11.10;99.90;;;;;;5073594;28;20053;-70
2022/04/20 08:05:50;;;;;;;31.45;18.63;;;11.30;99.90;;;;;;5089747;28;20107;-71
2022/04/20 08:08:17;;;;;;;25.48;15.77;;;11.30;99.90;;;;;;5056971;28;20044;-69
2022/04/20 08:10:44;;;;;;;23.75;15.32;;;11.40;99.90;;;;;;5072932;28;20051;-72
2022/04/20 08:15:57;;;;;;;34.78;21.90;;;11.40;99.90;;;;;;5074143;28;20044;-74
2022/04/20 08:18:25;;;;;;;44.92;32.47;;;11.50;99.90;;;;;;5075081;28;20396;-70
2022/04/20 08:20:52;;;;;;;24.38;15.85;;;11.70;99.90;;;;;;5073328;28;20319;-70
2022/04/20 08:23:19;;;;;;;25.40;17.65;;;11.70;99.90;;;;;;5072890;28;20040;-71
2022/04/20 08:25:46;;;;;;;26.52;15.50;;;11.80;99.90;;;;;;5073065;28;20052;-70
2022/04/20 08:28:13;;;;;;;23.50;15.23;;;12.00;99.90;;;;;;5072812;28;20040;-70
2022/04/20 08:30:40;;;;;;;21.05;13.95;;;12.10;99.90;;;;;;5072982;28;20048;-71
2022/04/20 08:33:08;;;;;;;22.40;13.32;;;12.20;99.90;;;;;;5072239;28;20507;-71
2022/04/20 08:35:35;;;;;;;45.25;32.78;;;12.30;99.90;;;;;;5073355;28;20057;-72
2022/04/20 08:38:02;;;;;;;26.02;16.30;;;12.40;99.90;;;;;;5072397;28;20060;-73
2022/04/20 08:40:29;;;;;;;27.65;15.50;;;12.50;99.90;;;;;;5072914;28;20053;-77
2022/04/20 08:43:03;;;;;;;26.17;14.18;;;12.60;99.90;;;;;;5071376;28;20078;-72
2022/04/20 08:45:30;;;;;;;22.35;13.27;;;12.60;99.90;;;;;;5055958;28;20506;-72
2022/04/20 08:47:57;;;;;;;20.45;13.10;;;12.70;99.90;;;;;;5072673;28;20048;-72
2022/04/20 08:50:25;;;;;;;19.90;13.00;;;12.80;99.90;;;;;;5072247;28;20059;-72
2022/04/20 08:52:53;;;;;;;24.17;12.55;;;12.90;99.90;;;;;;5071866;28;20056;-73
2022/04/20 08:55:20;;;;;;;16.58;11.05;;;13.10;99.90;;;;;;5071298;28;20041;-71
2022/04/20 08:57:48;;;;;;;15.63;10.85;;;13.10;99.90;;;;;;5071629;28;20044;-71
2022/04/20 09:00:21;;;;;;;21.77;13.18;;;13.20;99.90;;;;;;5072004;28;20462;-71
2022/04/20 09:02:58;;;;;;;17.98;11.52;;;13.10;99.90;;;;;;5072029;28;20403;-71
2022/04/20 09:05:28;;;;;;;20.10;11.02;;;13.20;99.90;;;;;;5071074;28;20047;-70
2022/04/20 09:07:58;;;;;;;21.80;10.80;;;13.30;99.90;;;;;;5061240;28;20048;-71
2022/04/20 09:10:25;;;;;;;19.10;11.18;;;13.50;99.90;;;;;;5072339;28;20044;-70
2022/04/20 09:13:06;;;;;;;15.60;10.45;;;13.50;99.90;;;;;;5066131;28;20055;-71
2022/04/20 09:15:33;;;;;;;19.90;11.02;;;13.50;99.90;;;;;;5055842;28;20468;-71
2022/04/20 09:18:06;;;;;;;16.50;10.70;;;13.60;99.90;;;;;;5072348;28;20036;-70
2022/04/20 09:20:34;;;;;;;20.40;12.60;;;13.60;99.90;;;;;;5078970;28;20048;-71
2022/04/20 09:23:13;;;;;;;23.02;11.40;;;13.70;99.90;;;;;;5075680;28;20044;-71
2022/04/20 09:25:49;;;;;;;17.55;9.38;;;13.90;99.90;;;;;;5092809;28;20048;-68
2022/04/20 09:28:16;;;;;;;27.42;17.92;;;14.00;99.90;;;;;;5092044;28;20407;-61
2022/04/20 09:30:44;;;;;;;28.85;19.63;;;14.10;99.90;;;;;;5083556;28;20055;-62
2022/04/20 09:33:11;;;;;;;18.85;9.55;;;14.30;98.10;;;;;;5055505;28;20040;-75
2022/04/20 09:35:47;;;;;;;14.75;9.00;;;14.30;95.00;;;;;;5071671;28;20051;-74
2022/04/20 09:38:17;;;;;;;11.30;7.63;;;14.40;92.80;;;;;;5071884;28;20055;-74
2022/04/20 09:40:44;;;;;;;13.80;7.93;;;14.40;92.20;;;;;;5071917;28;20415;-73
2022/04/20 09:43:16;;;;;;;11.80;7.32;;;14.50;91.50;;;;;;5071587;28;20056;-75
2022/04/20 09:45:43;;;;;;;10.82;6.85;;;14.70;90.00;;;;;;5072215;28;20053;-75
2022/04/20 09:51:08;;;;;;;16.80;6.90;;;14.70;85.00;;;;;;5072069;28;20403;-75
2022/04/20 09:53:35;;;;;;;12.18;6.22;;;14.90;84.60;;;;;;5055927;28;20048;-76
2022/04/20 09:56:21;;;;;;;7.75;4.63;;;15.00;82.80;;;;;;5071865;28;20139;-76
2022/04/20 09:58:59;;;;;;;9.10;5.60;;;15.10;76.60;;;;;;5071347;28;20091;-74
2022/04/20 10:01:32;;;;;;;11.50;5.68;;;15.20;78.50;;;;;;5071235;28;20040;-75
2022/04/20 10:04:00;;;;;;;9.75;5.75;;;15.10;76.90;;;;;;5072606;28;20048;-75
2022/04/20 10:06:27;;;;;;;10.07;5.32;;;15.00;78.20;;;;;;5072697;28;20048;-75
2022/04/20 10:08:54;;;;;;;12.90;5.50;;;15.10;79.10;;;;;;5086639;28;20045;-76
2022/04/20 10:11:22;;;;;;;10.90;5.70;;;15.30;79.40;;;;;;5072523;28;20081;-75
2022/04/20 10:16:49;;;;;;;10.18;5.82;;;15.40;75.00;;;;;;5071351;28;20052;-70
2022/04/20 10:19:27;;;;;;;10.95;5.68;;;15.40;76.50;;;;;;5071039;28;20055;-74
2022/04/20 10:21:55;;;;;;;9.82;5.30;;;15.50;75.80;;;;;;5071073;28;20079;-75
2022/04/20 10:24:28;;;;;;;16.48;5.43;;;15.40;70.40;;;;;;5054379;28;20048;-75
2022/04/20 10:26:57;;;;;;;19.05;5.47;;;15.40;69.90;;;;;;5071089;28;20041;-75
2022/04/20 10:29:24;;;;;;;;;;;15.30;69.60;;;;;;5055015;28;20052;-75
2022/04/20 10:32:26;;;;;;;10.88;4.30;;;15.30;68.70;;;;;;5071934;28;20374;-74
2022/04/20 10:34:53;;;;;;;9.18;4.68;;;15.40;68.80;;;;;;5067330;28;20052;-75
2022/04/20 10:37:25;;;;;;;10.43;4.50;;;15.50;70.60;;;;;;5072201;28;20484;-75
2022/04/20 10:39:55;;;;;;;10.63;4.70;;;15.60;71.50;;;;;;5072418;28;20048;-75
2022/04/20 10:42:23;;;;;;;9.45;4.40;;;15.70;71.10;;;;;;5071115;28;20048;-76
2022/04/20 10:45:01;;;;;;;9.40;5.30;;;15.70;69.80;;;;;;5070825;28;20045;-76
2022/04/20 10:47:41;;;;;;;13.05;4.30;;;15.70;69.70;;;;;;5054304;28;20041;-75
2022/04/20 10:50:19;;;;;;;9.88;4.75;;;15.70;66.50;;;;;;5070505;28;20080;-80
2022/04/20 10:53:04;;;;;;;6.68;4.60;;;15.80;65.50;;;;;;5071055;28;20124;-68
2022/04/20 10:55:31;;;;;;;11.48;4.28;;;15.90;64.50;;;;;;5059511;28;20556;-71
2022/04/20 10:58:06;;;;;;;11.20;6.32;;;16.10;62.10;;;;;;5071283;28;20045;-76
2022/04/20 11:00:38;;;;;;;12.68;4.80;;;16.00;60.90;;;;;;5072667;28;20052;-74
2022/04/20 11:03:06;;;;;;;10.15;5.43;;;15.90;62.00;;;;;;5071454;28;20048;-77
2022/04/20 11:05:53;;;;;;;11.32;4.57;;;16.00;63.40;;;;;;5069453;28;20059;-75
2022/04/20 11:08:22;;;;;;;14.02;5.57;;;16.10;62.20;;;;;;5070232;28;20048;-78
2022/04/20 11:19:53;;;;;;;12.52;5.97;;;16.50;63.30;;;;;;5072957;28;20049;-74
2022/04/20 11:22:21;;;;;;;12.80;6.28;;;16.50;59.70;;;;;;5073967;28;20048;-74
2022/04/20 11:25:06;;;;;;;8.32;5.97;;;16.60;58.70;;;;;;5075415;28;20049;-74
2022/04/20 11:27:34;;;;;;;19.17;6.07;;;16.60;58.60;;;;;;5074332;28;20048;-73
2022/04/20 11:30:03;;;;;;;18.02;6.47;;;16.60;57.40;;;;;;5058119;28;20052;-74
2022/04/20 11:32:30;;;;;;;12.52;5.70;;;16.60;56.50;;;;;;5057980;28;20052;-69
2022/04/20 11:35:08;;;;;;;14.70;9.30;;;16.60;57.60;;;;;;5074792;28;20091;-74
2022/04/20 11:37:37;;;;;;;14.98;6.65;;;16.40;56.10;;;;;;5073263;28;20044;-73
2022/04/20 11:40:13;;;;;;;12.38;6.57;;;16.20;56.70;;;;;;5075317;28;20044;-70
2022/04/20 11:42:42;;;;;;;7.57;5.30;;;16.20;57.90;;;;;;5074088;28;20395;-70
2022/04/20 11:45:10;;;;;;;12.50;5.95;;;16.30;57.30;;;;;;5074102;28;20040;-71
2022/04/20 11:47:40;;;;;;;11.32;6.00;;;16.40;57.40;;;;;;5073654;28;20122;-71
2022/04/20 11:50:08;;;;;;;8.88;5.28;;;16.60;58.30;;;;;;5090640;28;20045;-71
2022/04/20 11:52:35;;;;;;;16.17;5.82;;;16.60;55.70;;;;;;5089759;28;20047;-72
2022/04/20 11:55:06;;;;;;;10.27;5.70;;;16.50;56.00;;;;;;5074902;28;20052;-75
2022/04/20 11:57:32;;;;;;;12.60;5.32;;;16.60;56.40;;;;;;5073753;28;20045;-71
2022/04/20 12:00:00;;;;;;;11.02;5.10;;;16.50;56.20;;;;;;5074009;28;20048;-70
2022/04/20 12:02:27;;;;;;;7.80;4.82;;;16.40;53.70;;;;;;5072865;28;20041;-71
2022/04/20 12:05:12;;;;;;;9.25;5.00;;;16.40;55.00;;;;;;5090394;28;20503;-71
2022/04/20 12:07:39;;;;;;;9.10;5.85;;;16.50;55.00;;;;;;5074190;28;20094;-71
2022/04/20 12:10:07;;;;;;;10.85;5.78;;;16.50;55.00;;;;;;5074514;28;20044;-72
2022/04/20 12:12:33;;;;;;;14.70;5.63;;;16.50;55.10;;;;;;5074392;28;20435;-71
2022/04/20 12:15:10;;;;;;;9.27;5.38;;;16.60;55.90;;;;;;5075043;28;20056;-71
2022/04/20 12:17:37;;;;;;;7.57;4.97;;;16.60;53.40;;;;;;5073601;28;20082;-71
2022/04/20 12:20:05;;;;;;;11.27;5.43;;;16.70;54.90;;;;;;5074605;28;20106;-71
2022/04/20 12:22:32;;;;;;;7.13;4.57;;;16.80;53.80;;;;;;5074189;28;20056;-71
2022/04/20 12:25:06;;;;;;;12.95;6.10;;;16.90;56.40;;;;;;5072691;28;20060;-71
2022/04/20 12:27:51;;;;;;;11.63;5.18;;;16.90;56.30;;;;;;5056233;28;20095;-72
2022/04/20 12:30:35;;;;;;;20.40;13.65;;;16.90;55.40;;;;;;5072968;28;20045;-65
2022/04/20 12:33:04;;;;;;;10.02;6.75;;;16.80;54.60;;;;;;5062476;28;20054;-70
2022/04/20 12:35:32;;;;;;;19.27;7.05;;;16.70;55.80;;;;;;5062205;28;20055;-70
2022/04/20 12:37:59;;;;;;;10.68;5.32;;;16.80;56.90;;;;;;5081703;28;20515;-70
2022/04/20 12:40:26;;;;;;;10.80;5.78;;;16.80;55.40;;;;;;5071219;28;20480;-73
2022/04/20 12:43:00;;;;;;;13.15;5.05;;;16.90;57.70;;;;;;5073365;28;20044;-70
2022/04/20 12:45:27;;;;;;;11.82;5.38;;;16.90;57.90;;;;;;5073137;28;20052;-68
2022/04/20 12:48:04;;;;;;;12.05;5.80;;;17.00;57.60;;;;;;5073911;28;20048;-69
2022/04/20 12:50:36;;;;;;;15.95;6.50;;;17.10;54.70;;;;;;5073408;28;20044;-69
2022/04/20 12:53:03;;;;;;;9.07;5.15;;;16.90;55.70;;;;;;5071935;28;20056;-69
2022/04/20 12:55:37;;;;;;;9.43;5.68;;;17.00;57.20;;;;;;5072443;28;20479;-69
2022/04/20 13:03:46;;;;;;;13.20;6.32;;;17.20;55.70;;;;;;5072300;28;20057;-69
2022/04/20 13:06:13;;;;;;;10.73;6.05;;;17.10;55.50;;;;;;5088385;28;20067;-69
2022/04/20 13:08:43;;;;;;;10.77;6.38;;;16.90;56.00;;;;;;5072456;28;20040;-69
2022/04/20 13:11:14;;;;;;;12.52;5.90;;;16.80;54.00;;;;;;5072294;28;20058;-70
2022/04/20 13:14:01;;;;;;;10.75;5.85;;;16.70;54.30;;;;;;5070278;28;20509;-69
2022/04/20 13:16:28;;;;;;;12.73;5.57;;;16.70;53.90;;;;;;5072100;28;20056;-70
2022/04/20 13:18:55;;;;;;;8.65;5.65;;;16.70;54.50;;;;;;5073071;28;20049;-69
2022/04/20 13:21:23;;;;;;;15.07;5.18;;;16.70;54.40;;;;;;5071693;28;20071;-71
2022/04/20 13:23:52;;;;;;;16.20;6.43;;;16.60;53.70;;;;;;5074983;28;20043;-69
2022/04/20 13:29:05;;;;;;;7.97;4.75;;;16.50;54.20;;;;;;5071750;28;20045;-69
2022/04/20 13:31:32;;;;;;;6.82;5.00;;;16.60;53.50;;;;;;5071159;28;20408;-69
2022/04/20 13:33:59;;;;;;;10.57;5.40;;;16.60;53.80;;;;;;5072755;28;20063;-69
2022/04/20 13:36:26;;;;;;;11.98;6.03;;;16.50;54.40;;;;;;5072792;28;20041;-69
2022/04/20 13:38:53;;;;;;;9.80;4.63;;;16.60;53.80;;;;;;5072398;28;20059;-70
2022/04/20 13:41:20;;;;;;;8.88;4.30;;;16.60;54.00;;;;;;5072823;28;20506;-69
2022/04/20 13:43:47;;;;;;;10.18;5.05;;;16.50;53.20;;;;;;5054132;28;20045;-66
2022/04/20 13:46:14;;;;;;;18.80;11.25;;;16.50;53.80;;;;;;5071542;28;20514;-69
2022/04/20 13:48:41;;;;;;;10.02;5.30;;;16.60;52.50;;;;;;5071026;28;20148;-67
2022/04/20 13:51:08;;;;;;;7.85;4.78;;;16.70;52.80;;;;;;5071672;28;20052;-76
2022/04/20 13:53:35;;;;;;;12.63;5.40;;;16.60;52.00;;;;;;5071661;28;20053;-81
2022/04/20 13:56:02;;;;;;;9.57;4.93;;;16.60;53.90;;;;;;5070738;28;20048;-79
2022/04/20 13:58:31;;;;;;;8.20;5.03;;;16.60;53.30;;;;;;5070193;28;20048;-75
2022/04/20 14:00:57;;;;;;;10.90;5.07;;;16.70;52.60;;;;;;5071883;28;20044;-76
2022/04/20 14:03:25;;;;;;;11.63;5.43;;;16.70;52.50;;;;;;5071558;28;20055;-75
2022/04/20 14:05:54;;;;;;;8.98;4.97;;;16.80;52.40;;;;;;5073134;28;20117;-75
2022/04/20 14:08:21;;;;;;;13.60;5.17;;;16.70;50.90;;;;;;5072081;28;20056;-75
2022/04/20 14:10:47;;;;;;;9.23;5.07;;;16.60;52.10;;;;;;5072996;28;20044;-74
2022/04/20 14:13:14;;;;;;;16.65;4.88;;;16.60;52.00;;;;;;5088653;28;20053;-74
2022/04/20 14:15:41;;;;;;;7.93;4.82;;;16.60;51.70;;;;;;5071888;28;20051;-71
2022/04/20 14:18:08;;;;;;;7.57;4.95;;;16.60;52.10;;;;;;5072558;28;20044;-75
2022/04/20 14:20:35;;;;;;;10.32;4.97;;;16.60;52.80;;;;;;5072669;28;20485;-76
2022/04/20 14:23:02;;;;;;;8.23;5.30;;;16.50;50.40;;;;;;5072869;28;20049;-74
2022/04/20 14:33:45;;;;;;;9.20;5.25;;;16.30;51.80;;;;;;5072172;28;20064;-85
2022/04/20 14:36:12;;;;;;;8.75;4.78;;;16.20;52.60;;;;;;5072725;28;20049;-71
2022/04/20 14:38:39;;;;;;;8.38;5.72;;;16.20;52.60;;;;;;5071367;28;20044;-71
2022/04/20 14:41:06;;;;;;;25.05;6.22;;;16.20;52.20;;;;;;5071174;28;20044;-71
2022/04/20 14:43:32;;;;;;;10.75;5.47;;;16.30;52.90;;;;;;5070556;28;20045;-73
2022/04/20 14:46:00;;;;;;;14.23;5.88;;;16.40;51.30;;;;;;5072880;28;20056;-70
2022/04/20 14:48:26;;;;;;;8.20;5.22;;;16.30;52.50;;;;;;5070979;28;20086;-70